createdAt,value
2022-09-30T00:00:23.949Z,99744.69
2022-09-30T00:03:20.575Z,99739.68
2022-09-30T00:06:08.062Z,99744.35
2022-09-30T00:08:45.679Z,99740.13
2022-09-30T00:11:20.682Z,99737.35
2022-09-30T00:13:55.835Z,99735.77
2022-09-30T00:16:35.718Z,99730.94
2022-09-30T00:19:09.537Z,99736.02
2022-09-30T00:21:46.536Z,99738.45
2022-09-30T00:24:24.923Z,99744.02
2022-09-30T00:26:58.513Z,99744.08
2022-09-30T00:29:32.314Z,99746.56
2022-09-30T00:32:15.541Z,99746.05
2022-09-30T00:34:59.504Z,99750.77
2022-09-30T00:37:35.521Z,99748.02
2022-09-30T00:40:20.673Z,99750.13
2022-09-30T00:42:57.440Z,99761.75
2022-09-30T00:45:47.498Z,99758.13
2022-09-30T00:48:27.113Z,99748.49
2022-09-30T00:51:07.452Z,99749.45
2022-09-30T00:53:53.136Z,99748.67
2022-09-30T00:56:29.910Z,99747.65
2022-09-30T00:59:20.214Z,99755.66
2022-09-30T01:01:57.508Z,99756.02
2022-09-30T01:04:36.776Z,99748.30
2022-09-30T01:07:16.214Z,99751.92
2022-09-30T01:09:58.702Z,99753.96
2022-09-30T01:12:53.352Z,99747.62
2022-09-30T01:15:53.753Z,99749.61
2022-09-30T01:18:56.679Z,99744.08
2022-09-30T01:22:08.488Z,99745.94
2022-09-30T01:25:02.398Z,99744.04
2022-09-30T01:28:01.599Z,99742.86
2022-09-30T01:30:55.614Z,99745.88
2022-09-30T01:33:41.353Z,99751.86
2022-09-30T01:36:31.167Z,99759.27
2022-09-30T01:39:23.782Z,99756.38
2022-09-30T01:42:12.017Z,99756.58
2022-09-30T01:44:58.943Z,99763.34
2022-09-30T01:47:44.356Z,99768.00
2022-09-30T01:50:24.962Z,99772.04
2022-09-30T01:53:11.717Z,99772.09
2022-09-30T01:55:53.796Z,99775.73
2022-09-30T01:58:39.408Z,99777.11
2022-09-30T02:01:41.207Z,99778.00
2022-09-30T02:04:21.353Z,99785.17
2022-09-30T02:07:02.808Z,99791.27
2022-09-30T02:09:43.840Z,99787.66
2022-09-30T02:12:26.627Z,99784.13
2022-09-30T02:15:08.061Z,99791.31
2022-09-30T02:17:52.277Z,99797.46
2022-09-30T02:20:34.256Z,99804.56
2022-09-30T02:23:16.272Z,99812.20
2022-09-30T02:25:55.467Z,99810.00
2022-09-30T02:28:33.565Z,99808.08
2022-09-30T02:31:11.507Z,99811.70
2022-09-30T02:33:52.175Z,99814.98
2022-09-30T02:36:31.819Z,99815.52
2022-09-30T02:39:09.641Z,99818.96
2022-09-30T02:41:46.570Z,99816.54
2022-09-30T02:44:23.305Z,99818.85
2022-09-30T02:47:17.638Z,99820.75
2022-09-30T02:50:02.484Z,99822.23
2022-09-30T02:52:55.593Z,99829.27
2022-09-30T02:55:40.925Z,99829.56
2022-09-30T02:58:16.452Z,99832.48
2022-09-30T03:00:50.117Z,99834.59
2022-09-30T03:03:28.357Z,99832.96
2022-09-30T03:06:06.191Z,99827.69
2022-09-30T03:08:39.746Z,99823.90
2022-09-30T03:11:16.874Z,99828.81
2022-09-30T03:14:16.044Z,99832.83
2022-09-30T03:17:11.801Z,99825.26
2022-09-30T03:20:04.347Z,99823.30
2022-09-30T03:23:21.369Z,99829.22
2022-09-30T03:26:06.493Z,99837.07
2022-09-30T03:28:48.229Z,99840.90
2022-09-30T03:31:31.009Z,99846.42
2022-09-30T03:34:18.911Z,99845.70
2022-09-30T03:37:04.825Z,99844.40
2022-09-30T03:39:54.792Z,99844.86
2022-09-30T03:42:39.142Z,99845.05
2022-09-30T03:45:21.367Z,99842.01
2022-09-30T03:47:58.752Z,99842.65
2022-09-30T03:50:39.125Z,99842.76
2022-09-30T03:53:16.997Z,99841.92
2022-09-30T03:55:53.184Z,99840.98
2022-09-30T03:58:30.637Z,99840.23
2022-09-30T04:01:04.594Z,99842.79
2022-09-30T04:03:37.900Z,99843.27
2022-09-30T04:06:32.007Z,99843.56
2022-09-30T04:09:05.521Z,99843.99
2022-09-30T04:11:42.728Z,99847.41
2022-09-30T04:14:19.193Z,99853.39
2022-09-30T04:16:56.088Z,99854.29
2022-09-30T04:19:29.937Z,99859.70
2022-09-30T04:22:03.818Z,99865.98
2022-09-30T04:24:40.960Z,99876.98
2022-09-30T04:27:17.826Z,99880.69
2022-09-30T04:29:54.147Z,99885.84
2022-09-30T04:32:29.210Z,99892.86
2022-09-30T04:35:03.097Z,99888.02
2022-09-30T04:37:36.810Z,99890.21
2022-09-30T04:40:12.276Z,99895.77
2022-09-30T04:42:46.006Z,99899.77
2022-09-30T04:45:20.704Z,99902.45
2022-09-30T04:48:07.224Z,99902.64
2022-09-30T04:50:44.742Z,99903.70
2022-09-30T04:53:21.578Z,99901.95
2022-09-30T04:56:03.779Z,99904.12
2022-09-30T04:58:37.791Z,99906.72
2022-09-30T05:01:13.442Z,99911.71
2022-09-30T05:03:49.176Z,99917.69
2022-09-30T05:06:22.874Z,99924.42
2022-09-30T05:09:16.706Z,99925.33
2022-09-30T05:11:53.862Z,99931.20
2022-09-30T05:14:30.437Z,99939.92
2022-09-30T05:17:06.755Z,99940.27
2022-09-30T05:19:50.156Z,99934.08
2022-09-30T05:22:27.241Z,99930.45
2022-09-30T05:25:04.192Z,99927.55
2022-09-30T05:27:37.896Z,99925.10
2022-09-30T05:30:15.141Z,99923.30
2022-09-30T05:32:48.638Z,99923.06
2022-09-30T05:35:24.729Z,99927.67
2022-09-30T05:38:07.110Z,99931.80
2022-09-30T05:40:45.584Z,99933.17
2022-09-30T05:43:30.641Z,99945.58
2022-09-30T05:46:03.923Z,99947.68
2022-09-30T05:48:40.023Z,99947.55
2022-09-30T05:51:19.906Z,99944.92
2022-09-30T05:53:53.458Z,99945.39
2022-09-30T05:56:27.047Z,99948.38
2022-09-30T05:59:03.769Z,99953.11
2022-09-30T06:01:37.926Z,99950.94
2022-09-30T06:04:11.702Z,99949.11
2022-09-30T06:06:49.026Z,99955.80
2022-09-30T06:09:22.927Z,99962.77
2022-09-30T06:11:58.487Z,99969.69
2022-09-30T06:14:39.693Z,99973.77
2022-09-30T06:17:18.979Z,99970.55
2022-09-30T06:19:55.793Z,99969.23
2022-09-30T06:22:39.268Z,99972.79
2022-09-30T06:25:13.341Z,99974.16
2022-09-30T06:27:49.304Z,99981.05
2022-09-30T06:30:35.196Z,99984.45
2022-09-30T06:33:19.992Z,99988.02
2022-09-30T06:35:54.257Z,99987.39
2022-09-30T06:38:30.803Z,99988.44
2022-09-30T06:41:08.026Z,99984.20
2022-09-30T06:43:56.586Z,99982.74
2022-09-30T06:46:52.577Z,99982.03
2022-09-30T06:49:44.152Z,99984.28
2022-09-30T06:52:23.457Z,99987.65
2022-09-30T06:55:07.070Z,99986.36
2022-09-30T06:57:44.047Z,99989.79
2022-09-30T07:00:18.167Z,99990.27
2022-09-30T07:02:51.751Z,99990.80
2022-09-30T07:05:26.852Z,99993.43
2022-09-30T07:08:00.738Z,99994.77
2022-09-30T07:10:34.913Z,99990.98
2022-09-30T07:13:12.664Z,99989.65
2022-09-30T07:15:46.900Z,99994.66
2022-09-30T07:18:28.171Z,99993.29
2022-09-30T07:21:06.136Z,99995.29
2022-09-30T07:23:45.863Z,99988.84
2022-09-30T07:26:24.173Z,99986.59
2022-09-30T07:29:01.609Z,99991.38
2022-09-30T07:31:36.062Z,99991.02
2022-09-30T07:34:10.751Z,99993.02
2022-09-30T07:36:45.879Z,99996.89
2022-09-30T07:39:19.365Z,100000.22
2022-09-30T07:41:55.057Z,100003.15
2022-09-30T07:44:29.674Z,100003.88
2022-09-30T07:47:03.550Z,100004.71
2022-09-30T07:49:37.760Z,100009.17
2022-09-30T07:52:12.734Z,100014.85
2022-09-30T07:54:50.409Z,100018.89
2022-09-30T07:57:28.383Z,100021.17
2022-09-30T08:00:29.790Z,100025.77
2022-09-30T08:03:01.890Z,100036.21
2022-09-30T08:05:40.499Z,100044.59
2022-09-30T08:08:14.138Z,100047.04
2022-09-30T08:10:48.341Z,100048.98
2022-09-30T08:13:42.551Z,100049.30
2022-09-30T08:16:16.002Z,100050.70
2022-09-30T08:18:50.162Z,100046.55
2022-09-30T08:21:23.956Z,100052.75
2022-09-30T08:23:57.291Z,100055.42
2022-09-30T08:26:33.076Z,100056.83
2022-09-30T08:29:07.748Z,100058.80
2022-09-30T08:31:41.459Z,100061.66
2022-09-30T08:34:15.561Z,100062.64
2022-09-30T08:36:49.089Z,100065.69
2022-09-30T08:39:23.051Z,100066.90
2022-09-30T08:42:35.968Z,100064.76
2022-09-30T08:45:27.351Z,100070.22
2022-09-30T08:48:10.138Z,100074.74
2022-09-30T08:50:58.237Z,100076.74
2022-09-30T08:53:34.796Z,100077.33
2022-09-30T08:56:09.177Z,100077.88
2022-09-30T08:58:47.547Z,100077.98
2022-09-30T09:01:31.444Z,100078.71
2022-09-30T09:04:07.143Z,100081.49
2022-09-30T09:06:48.224Z,100080.63
2022-09-30T09:09:49.883Z,100083.15
2022-09-30T09:12:38.954Z,100088.23
2022-09-30T09:15:33.041Z,100086.77
2022-09-30T09:18:34.907Z,100091.34
2022-09-30T09:21:22.340Z,100094.34
2022-09-30T09:23:59.700Z,100096.12
2022-09-30T09:26:37.600Z,100095.63
2022-09-30T09:29:27.792Z,100092.40
2022-09-30T09:32:02.484Z,100090.23
2022-09-30T09:34:38.287Z,100088.90
2022-09-30T09:37:45.058Z,100084.84
2022-09-30T09:40:28.986Z,100085.95
2022-09-30T09:43:15.841Z,100086.17
2022-09-30T09:45:58.852Z,100077.91
2022-09-30T09:48:36.486Z,100071.68
2022-09-30T09:51:27.152Z,100076.71
2022-09-30T09:54:05.693Z,100076.73
2022-09-30T09:56:39.098Z,100074.98
2022-09-30T09:59:15.266Z,100079.38
2022-09-30T10:01:52.611Z,100073.63
2022-09-30T10:04:27.997Z,100070.73
2022-09-30T10:07:03.231Z,100065.47
2022-09-30T10:09:38.434Z,100063.23
2022-09-30T10:12:32.420Z,100065.52
2022-09-30T10:15:23.107Z,100064.03
2022-09-30T10:18:01.171Z,100054.89
2022-09-30T10:20:38.072Z,100057.81
2022-09-30T10:23:34.116Z,100060.40
2022-09-30T10:26:19.693Z,100061.97
2022-09-30T10:28:54.771Z,100061.77
2022-09-30T10:31:31.938Z,100067.88
2022-09-30T10:34:19.772Z,100074.02
2022-09-30T10:36:54.295Z,100075.59
2022-09-30T10:39:34.299Z,100080.08
2022-09-30T10:42:11.715Z,100080.39
2022-09-30T10:45:02.435Z,100080.10
2022-09-30T10:47:37.550Z,100079.75
2022-09-30T10:50:17.498Z,100080.09
2022-09-30T10:52:56.866Z,100081.40
2022-09-30T10:55:36.574Z,100077.38
2022-09-30T10:58:31.085Z,100077.61
2022-09-30T11:01:13.185Z,100077.45
2022-09-30T11:04:02.307Z,100080.40
2022-09-30T11:06:39.342Z,100075.81
2022-09-30T11:09:17.822Z,100080.79
2022-09-30T11:11:56.950Z,100077.36
2022-09-30T11:14:37.263Z,100079.06
2022-09-30T11:17:22.772Z,100079.52
2022-09-30T11:20:07.189Z,100078.91
2022-09-30T11:22:49.413Z,100077.55
2022-09-30T11:25:29.781Z,100080.91
2022-09-30T11:28:33.893Z,100083.31
2022-09-30T11:31:18.170Z,100080.98
2022-09-30T11:34:09.741Z,100080.27
2022-09-30T11:36:51.979Z,100079.71
2022-09-30T11:39:49.777Z,100077.20
2022-09-30T11:42:32.872Z,100076.08
2022-09-30T11:45:28.864Z,100073.76
2022-09-30T11:48:31.874Z,100079.23
2022-09-30T11:51:16.078Z,100079.27
2022-09-30T11:53:57.030Z,100076.24
2022-09-30T11:56:40.947Z,100080.06
2022-09-30T11:59:22.754Z,100078.52
2022-09-30T12:02:01.437Z,100081.36
2022-09-30T12:04:40.949Z,100078.06
2022-09-30T12:07:42.946Z,100074.23
2022-09-30T12:10:27.451Z,100076.91
2022-09-30T12:13:06.930Z,100077.30
2022-09-30T12:15:42.383Z,100078.48
2022-09-30T12:18:19.861Z,100077.19
2022-09-30T12:20:57.023Z,100075.26
2022-09-30T12:23:44.058Z,100072.83
2022-09-30T12:26:18.905Z,100072.16
2022-09-30T12:29:15.341Z,100071.60
2022-09-30T12:32:16.430Z,100067.15
2022-09-30T12:35:04.436Z,100069.22
2022-09-30T12:37:53.257Z,100068.82
2022-09-30T12:40:51.556Z,100071.79
2022-09-30T12:43:45.180Z,100071.57
2022-09-30T12:46:23.969Z,100066.92
2022-09-30T12:49:02.208Z,100068.70
2022-09-30T12:51:44.636Z,100064.13
2022-09-30T12:54:23.789Z,100063.70
2022-09-30T12:57:01.529Z,100068.55
2022-09-30T12:59:37.872Z,100067.80
2022-09-30T13:02:26.399Z,100064.61
2022-09-30T13:05:38.446Z,100063.10
2022-09-30T13:08:39.213Z,100060.26
2022-09-30T13:11:44.939Z,100060.23
2022-09-30T13:14:33.263Z,100057.61
2022-09-30T13:17:30.174Z,100058.66
2022-09-30T13:20:04.080Z,100060.21
2022-09-30T13:22:46.714Z,100059.17
2022-09-30T13:25:20.641Z,100058.45
2022-09-30T13:31:19.550Z,100054.80
2022-09-30T13:34:12.052Z,100055.20
2022-09-30T13:37:01.835Z,100057.18
2022-09-30T13:39:45.980Z,100055.30
2022-09-30T13:42:45.976Z,100054.89
2022-09-30T13:45:23.209Z,100058.78
2022-09-30T13:48:11.359Z,100053.78
2022-09-30T13:50:53.956Z,100055.36
2022-09-30T13:53:35.131Z,100054.33
2022-09-30T13:56:14.836Z,100046.70
2022-09-30T13:59:19.909Z,100044.08
2022-09-30T14:02:22.582Z,100043.48
2022-09-30T14:05:15.823Z,100045.79
2022-09-30T14:08:06.983Z,100047.20
2022-09-30T14:10:58.630Z,100047.16
2022-09-30T14:13:51.400Z,100048.76
2022-09-30T14:16:57.249Z,100053.70
2022-09-30T14:19:58.153Z,100054.03
2022-09-30T14:22:34.107Z,100056.99
2022-09-30T14:25:15.353Z,100057.18
2022-09-30T14:28:05.154Z,100060.44
2022-09-30T14:31:04.376Z,100064.02
2022-09-30T14:33:39.902Z,100064.55
2022-09-30T14:36:18.465Z,100065.39
2022-09-30T14:38:56.134Z,100063.52
2022-09-30T14:41:31.774Z,100069.58
2022-09-30T14:44:08.499Z,100069.79
2022-09-30T14:46:47.554Z,100067.59
2022-09-30T14:49:21.419Z,100069.71
2022-09-30T14:51:55.348Z,100065.13
2022-09-30T14:54:30.450Z,100068.52
2022-09-30T14:57:18.419Z,100069.27
2022-09-30T14:59:52.085Z,100070.96
2022-09-30T15:02:25.374Z,100070.10
2022-09-30T15:05:01.712Z,100068.41
2022-09-30T15:07:35.679Z,100068.36
2022-09-30T15:10:19.085Z,100066.17
2022-09-30T15:12:55.535Z,100065.63
2022-09-30T15:15:40.936Z,100067.84
2022-09-30T15:18:36.042Z,100067.41
2022-09-30T15:21:12.844Z,100070.36
2022-09-30T15:23:51.903Z,100071.75
2022-09-30T15:26:27.432Z,100073.28
2022-09-30T15:29:00.922Z,100080.52
2022-09-30T15:31:36.132Z,100080.66
2022-09-30T15:34:21.776Z,100078.48
2022-09-30T15:37:07.029Z,100072.45
2022-09-30T15:40:00.543Z,100071.73
2022-09-30T15:42:38.567Z,100074.05
2022-09-30T15:45:35.298Z,100076.58
2022-09-30T15:48:29.241Z,100077.01
2022-09-30T15:51:23.550Z,100078.36
2022-09-30T15:54:00.818Z,100078.09
2022-09-30T15:56:39.110Z,100081.10
2022-09-30T15:59:22.749Z,100080.16
2022-09-30T16:02:00.112Z,100079.39
2022-09-30T16:04:33.787Z,100079.71
2022-09-30T16:07:12.969Z,100083.86
2022-09-30T16:09:50.764Z,100084.91
2022-09-30T16:12:28.466Z,100094.15
2022-09-30T16:15:10.262Z,100096.23
2022-09-30T16:17:50.342Z,100095.97
2022-09-30T16:20:27.118Z,100094.73
2022-09-30T16:23:02.922Z,100098.34
2022-09-30T16:25:37.307Z,100104.36
2022-09-30T16:28:15.421Z,100109.16
2022-09-30T16:30:51.579Z,100109.98
2022-09-30T16:33:25.105Z,100116.95
2022-09-30T16:35:58.910Z,100117.66
2022-09-30T16:38:32.531Z,100120.13
2022-09-30T16:41:07.475Z,100127.89
2022-09-30T16:43:40.946Z,100132.27
2022-09-30T16:46:15.194Z,100136.16
2022-09-30T16:48:48.991Z,100138.17
2022-09-30T16:51:22.493Z,100140.53
2022-09-30T16:53:56.309Z,100144.41
2022-09-30T16:56:31.763Z,100145.41
2022-09-30T16:59:15.448Z,100146.23
2022-09-30T17:01:49.275Z,100146.44
2022-09-30T17:04:39.077Z,100145.90
2022-09-30T17:07:15.415Z,100140.92
2022-09-30T17:10:14.533Z,100142.23
2022-09-30T17:12:52.314Z,100140.04
2022-09-30T17:15:29.496Z,100150.33
2022-09-30T17:18:08.666Z,100151.42
2022-09-30T17:20:54.302Z,100151.02
2022-09-30T17:23:29.358Z,100145.95
2022-09-30T17:26:07.741Z,100146.98
2022-09-30T17:28:50.803Z,100142.94
2022-09-30T17:31:24.584Z,100141.85
2022-09-30T17:33:58.166Z,100142.95
2022-09-30T17:36:32.248Z,100144.69
2022-09-30T17:39:08.590Z,100148.14
2022-09-30T17:42:00.125Z,100153.27
2022-09-30T17:44:34.424Z,100150.71
2022-09-30T17:47:07.732Z,100148.84
2022-09-30T17:49:41.441Z,100151.14
2022-09-30T17:52:23.175Z,100159.02
2022-09-30T17:54:57.284Z,100160.50
2022-09-30T17:57:32.138Z,100157.71
2022-09-30T18:00:06.667Z,100161.60
2022-09-30T18:02:42.366Z,100166.35
2022-09-30T18:05:17.321Z,100166.61
2022-09-30T18:07:50.965Z,100164.54
2022-09-30T18:10:24.742Z,100164.55
2022-09-30T18:12:59.998Z,100168.75
2022-09-30T18:15:33.591Z,100162.58
2022-09-30T18:18:09.661Z,100161.59
2022-09-30T18:20:51.939Z,100160.23
2022-09-30T18:23:28.944Z,100158.66
2022-09-30T18:26:02.837Z,100157.59
2022-09-30T18:28:41.425Z,100148.85
2022-09-30T18:31:21.934Z,100150.05
2022-09-30T18:33:55.464Z,100151.25
2022-09-30T18:36:32.743Z,100150.91
2022-09-30T18:39:06.972Z,100148.85
2022-09-30T18:41:45.796Z,100150.16
2022-09-30T18:44:19.781Z,100150.38
2022-09-30T18:46:57.096Z,100148.86
2022-09-30T18:49:30.832Z,100155.30
2022-09-30T18:52:04.951Z,100164.16
2022-09-30T18:54:38.306Z,100160.39
2022-09-30T18:57:11.865Z,100158.81
2022-09-30T18:59:57.285Z,100158.32
2022-09-30T19:02:32.666Z,100157.60
2022-09-30T19:05:06.638Z,100150.44
2022-09-30T19:07:40.064Z,100151.05
2022-09-30T19:10:14.633Z,100150.45
2022-09-30T19:12:48.243Z,100158.21
2022-09-30T19:15:23.984Z,100157.89
2022-09-30T19:17:57.844Z,100161.17
2022-09-30T19:20:31.536Z,100158.81
2022-09-30T19:23:06.763Z,100163.55
2022-09-30T19:25:44.159Z,100166.00
2022-09-30T19:28:21.472Z,100167.13
2022-09-30T19:30:56.233Z,100161.98
2022-09-30T19:33:29.762Z,100159.64
2022-09-30T19:36:14.761Z,100163.18
2022-09-30T19:38:50.282Z,100157.89
2022-09-30T19:41:31.437Z,100152.52
2022-09-30T19:44:05.543Z,100153.34
2022-09-30T19:46:42.270Z,100162.00
2022-09-30T19:49:16.559Z,100170.31
2022-09-30T19:51:54.655Z,100182.87
2022-09-30T19:54:38.599Z,100182.55
2022-09-30T19:57:14.807Z,100180.91
2022-09-30T19:59:48.514Z,100183.32
2022-09-30T20:02:22.531Z,100182.61
2022-09-30T20:04:55.918Z,100178.23
2022-09-30T20:07:30.895Z,100174.39
2022-09-30T20:10:05.214Z,100170.90
2022-09-30T20:12:39.355Z,100167.89
2022-09-30T20:15:33.284Z,100156.14
2022-09-30T20:18:06.836Z,100151.48
2022-09-30T20:20:45.896Z,100153.27
2022-09-30T20:23:32.451Z,100156.02
2022-09-30T20:26:06.453Z,100164.00
2022-09-30T20:28:39.776Z,100171.49
2022-09-30T20:31:16.861Z,100172.75
2022-09-30T20:33:55.450Z,100164.39
2022-09-30T20:36:30.499Z,100160.44
2022-09-30T20:39:07.387Z,100158.59
2022-09-30T20:41:42.168Z,100165.58
2022-09-30T20:44:21.192Z,100160.34
2022-09-30T20:46:58.247Z,100164.05
2022-09-30T20:49:32.855Z,100163.23
2022-09-30T20:52:09.660Z,100164.77
2022-09-30T20:54:46.276Z,100163.66
2022-09-30T20:57:30.431Z,100157.39
2022-09-30T21:00:06.140Z,100158.91
2022-09-30T21:02:39.363Z,100156.55
2022-09-30T21:05:13.352Z,100154.84
2022-09-30T21:07:46.679Z,100149.33
2022-09-30T21:10:20.167Z,100152.23
2022-09-30T21:12:54.142Z,100144.35
2022-09-30T21:15:31.916Z,100143.74
2022-09-30T21:18:06.067Z,100142.44
2022-09-30T21:20:43.053Z,100141.73
2022-09-30T21:23:20.105Z,100139.27
2022-09-30T21:25:59.583Z,100138.02
2022-09-30T21:28:38.491Z,100148.02
2022-09-30T21:31:33.692Z,100146.59
2022-09-30T21:34:27.509Z,100148.89
2022-09-30T21:37:10.749Z,100143.38
2022-09-30T21:39:48.868Z,100139.65
2022-09-30T21:42:28.479Z,100133.64
2022-09-30T21:45:04.619Z,100136.05
2022-09-30T21:48:06.621Z,100133.14
2022-09-30T21:50:42.750Z,100134.71
2022-09-30T21:53:19.539Z,100136.13
2022-09-30T21:55:55.291Z,100142.86
2022-09-30T21:58:31.819Z,100144.06
2022-09-30T22:01:07.173Z,100136.79
2022-09-30T22:03:43.024Z,100134.83
2022-09-30T22:06:19.298Z,100135.92
2022-09-30T22:09:00.624Z,100140.02
2022-09-30T22:11:34.251Z,100141.29
2022-09-30T22:14:08.152Z,100141.33
2022-09-30T22:16:46.121Z,100142.91
2022-09-30T22:19:23.106Z,100145.05
2022-09-30T22:21:56.096Z,100139.13
2022-09-30T22:24:33.348Z,100143.29
2022-09-30T22:27:09.502Z,100147.13
2022-09-30T22:29:55.874Z,100148.06
2022-09-30T22:32:33.059Z,100145.88
2022-09-30T22:35:24.318Z,100143.35
2022-09-30T22:38:16.778Z,100149.20
2022-09-30T22:40:56.012Z,100150.94
2022-09-30T22:43:39.472Z,100146.83
2022-09-30T22:46:12.999Z,100145.64
2022-09-30T22:48:46.647Z,100146.13
2022-09-30T22:51:20.107Z,100150.65
2022-09-30T22:53:56.717Z,100151.38
2022-09-30T22:56:30.580Z,100147.91
2022-09-30T22:59:04.325Z,100147.10
2022-09-30T23:01:38.204Z,100147.04
2022-09-30T23:04:11.842Z,100154.52
2022-09-30T23:06:45.674Z,100155.79
2022-09-30T23:09:23.202Z,100154.91
2022-09-30T23:11:59.506Z,100162.19
2022-09-30T23:14:33.625Z,100158.09
2022-09-30T23:17:10.812Z,100157.74
2022-09-30T23:19:47.781Z,100157.30
2022-09-30T23:22:21.541Z,100156.25
2022-09-30T23:24:55.106Z,100155.13
2022-09-30T23:27:28.666Z,100155.13
2022-09-30T23:30:02.051Z,100150.77
2022-09-30T23:32:35.912Z,100153.33
2022-09-30T23:35:14.436Z,100146.75
2022-09-30T23:37:51.034Z,100143.20
2022-09-30T23:40:24.684Z,100140.64
2022-09-30T23:42:58.182Z,100133.15
2022-09-30T23:45:31.826Z,100129.96
2022-09-30T23:48:05.946Z,100128.33
2022-09-30T23:50:51.822Z,100129.14
2022-09-30T23:53:26.237Z,100134.23
2022-09-30T23:56:04.731Z,100133.14
2022-09-30T23:58:39.386Z,100131.88
